Terminal Aerodrome Forecast
Issued by NWS Atlanta, GA

Home | Current Version | Previous Version | Text Only | Print | Product List | Glossary On
Versions: 1 2 3 4 5 6 7 8 9 10 11 12 13 14 15 16 17 18 19 20 21 22 23 24 25 26 27
000
FTUS42 KFFC 011134
TAFAHN
TAF
KAHN 011134Z 0112/0212 VRB03KT P6SM BKN150
     FM011400 14007KT P6SM SCT025 BKN040
     FM011800 17008KT P6SM VCSH OVC025
     FM020000 16007KT 2SM -RA BR OVC007
     FM020500 23012KT 2SM -RA BR OVC004=

USA.gov is the U.S. government's official web portal to all federal, state and local government web resources and services.